Time;durP1;ratioP1;P1;durP2;ratioP2;P2;SDS_P1;SDS_P2;PMS_P1;PMS_P2;Temp;Humidity;BMP_temperature;BMP_pressure;BME280_temperature;BME280_humidity;BME280_pressure;Samples;Min_cycle;Max_cycle;Signal;HPM_P1;HPM_P2
2022/07/19 00:01:52;;;;;;;9.27;2.20;;;21.50;53.80;;;;;;5020084;28;20478;-75
2022/07/19 00:04:20;;;;;;;9.10;2.27;;;21.40;53.80;;;;;;5022660;28;20969;-75
2022/07/19 00:06:49;;;;;;;5.40;2.10;;;21.40;54.00;;;;;;5020539;28;20496;-76
2022/07/19 00:09:17;;;;;;;14.50;2.73;;;21.40;54.10;;;;;;5021683;28;20448;-76
2022/07/19 00:11:46;;;;;;;11.13;2.93;;;21.40;54.10;;;;;;5031749;28;20472;-76
2022/07/19 00:14:14;;;;;;;6.87;2.73;;;21.40;54.20;;;;;;5026365;28;20469;-76
2022/07/19 00:16:42;;;;;;;7.27;2.67;;;21.40;54.30;;;;;;5025715;28;20472;-76
2022/07/19 00:19:10;;;;;;;9.17;2.33;;;21.40;54.30;;;;;;5018674;28;20489;-76
2022/07/19 00:21:38;;;;;;;10.60;2.93;;;21.40;54.30;;;;;;5027885;28;20631;-76
2022/07/19 00:24:06;;;;;;;12.47;2.37;;;21.30;54.30;;;;;;5027055;28;20470;-76
2022/07/19 00:26:34;;;;;;;13.33;2.73;;;21.20;54.40;;;;;;5026054;28;20498;-76
2022/07/19 00:29:04;;;;;;;6.60;2.50;;;21.20;54.50;;;;;;5023464;28;20457;-76
2022/07/19 00:31:31;;;;;;;15.93;2.73;;;21.10;54.60;;;;;;5024985;28;20837;-76
2022/07/19 00:34:00;;;;;;;10.83;2.63;;;21.10;54.70;;;;;;5026642;28;20991;-75
2022/07/19 00:36:28;;;;;;;8.20;2.30;;;21.10;54.70;;;;;;5028096;28;20530;-76
2022/07/19 00:38:56;;;;;;;11.43;2.30;;;21.10;54.80;;;;;;5028051;28;20850;-76
2022/07/19 00:41:24;;;;;;;9.33;3.20;;;21.10;54.80;;;;;;5025647;28;20469;-76
2022/07/19 00:43:52;;;;;;;6.33;2.17;;;21.00;54.90;;;;;;5025161;28;20523;-76
2022/07/19 00:46:22;;;;;;;9.17;2.30;;;21.00;55.00;;;;;;5015873;28;20561;-76
2022/07/19 00:48:51;;;;;;;12.07;2.33;;;21.00;55.10;;;;;;5027096;28;20466;-75
2022/07/19 00:51:19;;;;;;;7.37;2.23;;;21.00;55.20;;;;;;5027428;28;20466;-76
2022/07/19 00:53:48;;;;;;;8.87;2.53;;;21.10;55.30;;;;;;5023457;28;20555;-76
2022/07/19 00:56:18;;;;;;;10.43;2.60;;;21.00;55.30;;;;;;5023971;28;20487;-76
2022/07/19 00:58:49;;;;;;;14.27;2.80;;;21.00;55.30;;;;;;5027184;28;21400;-77
2022/07/19 01:01:18;;;;;;;7.33;2.50;;;21.00;55.40;;;;;;5023239;28;20954;-76
2022/07/19 01:03:49;;;;;;;17.27;2.50;;;21.00;55.40;;;;;;5022364;28;20563;-77
2022/07/19 01:06:17;;;;;;;6.23;2.17;;;21.00;55.40;;;;;;5024037;28;20482;-76
2022/07/19 01:08:45;;;;;;;7.57;3.10;;;21.00;55.40;;;;;;5026657;28;20467;-76
2022/07/19 01:11:13;;;;;;;9.53;2.47;;;20.90;55.50;;;;;;5026222;28;20453;-77
2022/07/19 01:13:41;;;;;;;9.53;2.53;;;20.90;55.60;;;;;;5022773;28;20463;-76
2022/07/19 01:16:09;;;;;;;13.83;2.63;;;20.90;55.60;;;;;;5012614;28;21043;-76
2022/07/19 01:18:37;;;;;;;9.90;2.37;;;20.80;55.80;;;;;;5024108;28;20492;-77
2022/07/19 01:21:09;;;;;;;19.63;2.83;;;20.80;55.80;;;;;;5020564;28;20490;-77
2022/07/19 01:23:38;;;;;;;7.23;2.23;;;20.80;55.80;;;;;;5023730;28;20456;-76
2022/07/19 01:26:06;;;;;;;6.10;2.27;;;20.70;55.80;;;;;;5027284;28;20476;-75
2022/07/19 01:28:35;;;;;;;6.40;2.23;;;20.60;55.90;;;;;;5025543;28;20464;-75
2022/07/19 01:31:03;;;;;;;9.53;2.63;;;20.60;55.90;;;;;;5026299;28;21019;-75
2022/07/19 01:33:32;;;;;;;13.43;2.70;;;20.60;56.10;;;;;;5025413;28;20471;-75
2022/07/19 01:35:59;;;;;;;7.30;2.37;;;20.60;56.10;;;;;;5025406;28;20487;-75
2022/07/19 01:38:28;;;;;;;9.80;2.93;;;20.60;56.10;;;;;;5026464;28;20474;-77
2022/07/19 01:40:58;;;;;;;7.27;2.20;;;20.60;56.10;;;;;;5021394;28;20452;-77
2022/07/19 01:43:26;;;;;;;8.30;2.30;;;20.60;56.20;;;;;;5024741;28;20506;-77
2022/07/19 01:45:54;;;;;;;9.27;2.60;;;20.60;56.20;;;;;;5024135;28;20479;-77
2022/07/19 01:48:22;;;;;;;6.90;2.00;;;20.60;56.20;;;;;;5023649;28;20460;-77
2022/07/19 01:50:50;;;;;;;6.43;2.20;;;20.60;56.20;;;;;;5010521;28;20471;-76
2022/07/19 01:53:18;;;;;;;6.23;1.93;;;20.50;56.20;;;;;;5022897;28;21027;-77
2022/07/19 01:55:47;;;;;;;13.23;3.00;;;20.40;56.20;;;;;;5023883;28;20502;-77
2022/07/19 01:58:16;;;;;;;5.93;2.10;;;20.40;56.20;;;;;;5009838;28;20985;-77
2022/07/19 02:00:45;;;;;;;7.50;2.43;;;20.40;56.30;;;;;;5024473;28;20490;-77
2022/07/19 02:03:13;;;;;;;6.93;2.70;;;20.30;56.30;;;;;;5024818;28;20507;-76
2022/07/19 02:05:41;;;;;;;7.20;2.40;;;20.30;56.40;;;;;;5024899;28;20499;-77
2022/07/19 02:08:09;;;;;;;5.93;2.40;;;20.30;56.40;;;;;;5021371;28;20465;-76
2022/07/19 02:10:37;;;;;;;11.10;2.23;;;20.30;56.50;;;;;;5028364;28;20459;-77
2022/07/19 02:13:05;;;;;;;7.70;2.37;;;20.30;56.50;;;;;;5016464;28;20833;-77
2022/07/19 02:15:35;;;;;;;6.20;2.07;;;20.30;56.50;;;;;;5025700;28;20484;-77
2022/07/19 02:18:03;;;;;;;8.53;2.20;;;20.20;56.50;;;;;;5026139;28;20459;-77
2022/07/19 02:20:31;;;;;;;6.03;2.40;;;20.10;56.50;;;;;;5024741;28;20488;-76
2022/07/19 02:22:59;;;;;;;6.13;2.50;;;20.00;56.60;;;;;;5011122;28;21153;-76
2022/07/19 02:25:27;;;;;;;6.17;2.53;;;20.00;56.60;;;;;;5022423;28;21091;-76
2022/07/19 02:27:55;;;;;;;7.97;2.27;;;19.90;56.70;;;;;;5024224;28;20474;-77
2022/07/19 02:30:23;;;;;;;6.87;2.60;;;19.70;56.80;;;;;;5025040;28;20452;-77
2022/07/19 02:32:52;;;;;;;8.23;3.13;;;19.70;56.90;;;;;;5022186;28;20466;-77
2022/07/19 02:35:26;;;;;;;5.80;2.17;;;19.60;57.00;;;;;;5021135;28;20918;-77
2022/07/19 02:37:54;;;;;;;4.80;1.80;;;19.60;57.10;;;;;;5025914;28;20485;-77
2022/07/19 02:40:21;;;;;;;6.33;2.50;;;19.50;57.20;;;;;;5014182;28;20479;-77
2022/07/19 02:42:49;;;;;;;5.90;2.23;;;19.50;57.20;;;;;;5022611;28;20493;-77
2022/07/19 02:45:17;;;;;;;10.90;2.43;;;19.40;57.30;;;;;;5025565;28;20469;-76
2022/07/19 02:47:46;;;;;;;4.80;2.00;;;19.30;57.40;;;;;;5013349;28;21006;-76
2022/07/19 02:50:16;;;;;;;6.53;2.60;;;19.30;57.50;;;;;;5025135;28;20492;-76
2022/07/19 02:52:44;;;;;;;7.40;2.53;;;19.20;57.50;;;;;;5024795;28;20923;-76
2022/07/19 02:55:12;;;;;;;5.77;2.13;;;19.20;57.60;;;;;;5024910;28;20478;-77
2022/07/19 02:57:40;;;;;;;5.23;2.07;;;19.20;57.70;;;;;;5033525;28;20467;-77
2022/07/19 03:00:09;;;;;;;9.53;2.50;;;19.20;57.90;;;;;;5029659;28;20915;-76
2022/07/19 03:02:37;;;;;;;6.00;2.37;;;19.20;57.90;;;;;;5028103;28;20471;-76
2022/07/19 03:05:06;;;;;;;5.57;2.00;;;19.20;57.90;;;;;;5031342;28;20468;-77
2022/07/19 03:07:35;;;;;;;9.00;2.37;;;19.20;58.10;;;;;;5031677;28;20476;-76
2022/07/19 03:10:04;;;;;;;6.37;2.20;;;19.20;58.10;;;;;;5033496;28;20461;-78
2022/07/19 03:12:32;;;;;;;7.10;2.40;;;19.30;58.20;;;;;;5031203;28;20477;-76
2022/07/19 03:15:00;;;;;;;11.20;2.67;;;19.30;58.20;;;;;;5029815;28;20461;-76
2022/07/19 03:17:28;;;;;;;6.73;2.53;;;19.30;58.30;;;;;;5028386;28;20482;-77
2022/07/19 03:19:56;;;;;;;6.13;2.70;;;19.30;58.30;;;;;;5022963;28;20480;-77
2022/07/19 03:22:24;;;;;;;7.30;2.30;;;19.30;58.50;;;;;;5022304;28;20467;-77
2022/07/19 03:24:56;;;;;;;8.03;2.43;;;19.30;58.40;;;;;;5018981;28;20575;-77
2022/07/19 03:27:24;;;;;;;6.10;2.27;;;19.30;58.50;;;;;;5021059;28;21063;-77
2022/07/19 03:29:52;;;;;;;10.67;2.40;;;19.30;58.50;;;;;;5017240;28;20462;-76
2022/07/19 03:32:20;;;;;;;6.17;2.27;;;19.30;58.50;;;;;;5018977;28;20483;-76
2022/07/19 03:34:47;;;;;;;8.70;2.60;;;19.30;58.50;;;;;;5023712;28;20466;-76
2022/07/19 03:37:16;;;;;;;7.20;2.57;;;19.30;58.50;;;;;;5022527;28;20474;-77
2022/07/19 03:39:44;;;;;;;8.17;2.60;;;19.30;58.50;;;;;;5021888;28;20488;-77
2022/07/19 03:42:13;;;;;;;9.47;2.70;;;19.30;58.50;;;;;;5020905;28;20463;-76
2022/07/19 03:44:41;;;;;;;6.23;2.73;;;19.20;58.60;;;;;;5023197;28;20463;-76
2022/07/19 03:47:09;;;;;;;11.43;2.40;;;19.20;58.70;;;;;;5027130;28;21051;-77
2022/07/19 03:49:37;;;;;;;8.50;2.40;;;19.20;58.80;;;;;;5026583;28;20558;-77
2022/07/19 03:52:05;;;;;;;8.80;2.30;;;19.10;58.80;;;;;;5025083;28;20473;-77
2022/07/19 03:54:33;;;;;;;8.23;2.40;;;19.10;58.90;;;;;;5027543;28;20462;-77
2022/07/19 03:57:01;;;;;;;5.43;2.23;;;19.10;59.00;;;;;;5026395;28;20466;-77
2022/07/19 03:59:30;;;;;;;6.70;2.67;;;19.10;58.90;;;;;;5025701;28;20919;-77
2022/07/19 04:01:58;;;;;;;7.53;2.13;;;19.00;58.90;;;;;;5026474;28;20488;-77
2022/07/19 04:04:26;;;;;;;5.70;2.73;;;19.00;59.00;;;;;;5026647;28;20548;-77
2022/07/19 04:06:55;;;;;;;9.63;3.10;;;19.00;59.00;;;;;;5029992;28;20484;-76
2022/07/19 04:09:23;;;;;;;6.60;2.50;;;19.00;59.00;;;;;;5031730;28;20460;-77
2022/07/19 04:11:51;;;;;;;5.07;2.40;;;19.00;59.10;;;;;;5027571;28;20469;-77
2022/07/19 04:14:19;;;;;;;5.57;2.83;;;19.00;59.20;;;;;;5029057;28;20465;-76
2022/07/19 04:16:48;;;;;;;6.70;2.50;;;19.10;59.30;;;;;;5026605;28;20921;-77
2022/07/19 04:19:16;;;;;;;7.00;2.80;;;19.10;59.30;;;;;;5026790;28;20461;-76
2022/07/19 04:21:44;;;;;;;11.87;2.60;;;19.10;59.30;;;;;;5026018;28;20493;-77
2022/07/19 04:24:12;;;;;;;7.90;2.33;;;19.10;59.30;;;;;;5029123;28;20466;-76
2022/07/19 04:26:40;;;;;;;6.50;2.47;;;19.10;59.40;;;;;;5029238;28;20485;-77
2022/07/19 04:29:08;;;;;;;12.27;2.73;;;19.10;59.50;;;;;;5027186;28;20503;-76
2022/07/19 04:31:36;;;;;;;8.00;2.87;;;19.20;59.60;;;;;;5023470;28;20494;-77
2022/07/19 04:34:06;;;;;;;9.70;2.40;;;19.30;59.50;;;;;;5027127;28;20463;-77
2022/07/19 04:36:34;;;;;;;8.00;2.87;;;19.30;59.50;;;;;;5027218;28;20487;-77
2022/07/19 04:39:02;;;;;;;8.80;2.47;;;19.30;59.40;;;;;;5030686;28;20472;-76
2022/07/19 04:41:30;;;;;;;7.57;2.80;;;19.40;59.50;;;;;;5026956;28;20484;-77
2022/07/19 04:43:59;;;;;;;10.20;3.13;;;19.50;59.50;;;;;;5025423;28;20468;-77
2022/07/19 04:46:27;;;;;;;8.13;2.43;;;19.70;59.50;;;;;;5026001;28;20490;-77
2022/07/19 04:48:55;;;;;;;7.87;2.40;;;19.80;59.50;;;;;;5023925;28;20554;-77
2022/07/19 04:51:24;;;;;;;7.27;2.47;;;20.00;59.40;;;;;;5025336;28;20456;-77
2022/07/19 04:53:52;;;;;;;7.20;2.63;;;20.20;59.40;;;;;;5025280;28;20469;-77
2022/07/19 04:56:20;;;;;;;6.20;2.77;;;20.40;59.40;;;;;;5024612;28;20502;-77
2022/07/19 04:58:48;;;;;;;6.80;2.67;;;20.60;59.30;;;;;;5022286;28;20829;-77
2022/07/19 05:01:17;;;;;;;7.30;2.33;;;20.80;59.20;;;;;;5021302;28;20502;-76
2022/07/19 05:03:45;;;;;;;5.20;2.53;;;20.90;59.10;;;;;;5024794;28;20493;-77
2022/07/19 05:06:13;;;;;;;10.70;2.33;;;21.10;59.10;;;;;;5032369;28;20473;-77
2022/07/19 05:08:42;;;;;;;7.40;2.73;;;21.20;59.10;;;;;;5022355;28;20493;-78
2022/07/19 05:11:10;;;;;;;11.67;2.97;;;21.40;59.10;;;;;;5024294;28;21179;-77
2022/07/19 05:13:38;;;;;;;7.23;2.50;;;21.60;59.10;;;;;;5021763;28;20453;-77
2022/07/19 05:16:07;;;;;;;6.37;2.70;;;21.70;58.80;;;;;;5016438;28;20573;-77
2022/07/19 05:18:35;;;;;;;7.47;3.10;;;21.90;58.80;;;;;;5024236;28;20973;-78
2022/07/19 05:21:03;;;;;;;5.23;2.10;;;22.10;58.60;;;;;;5026402;28;21016;-77
2022/07/19 05:23:31;;;;;;;7.73;2.37;;;22.20;58.50;;;;;;5024923;28;20466;-77
2022/07/19 05:26:00;;;;;;;8.80;2.90;;;22.40;58.30;;;;;;5026229;28;20480;-79
2022/07/19 05:28:28;;;;;;;6.77;2.37;;;22.50;58.20;;;;;;5024960;28;20520;-77
2022/07/19 05:31:04;;;;;;;5.80;2.27;;;22.70;58.30;;;;;;5025027;28;20480;-77
2022/07/19 05:33:32;;;;;;;8.90;2.37;;;23.00;58.50;;;;;;5024936;28;20460;-77
2022/07/19 05:36:00;;;;;;;5.50;2.40;;;23.30;58.60;;;;;;5020691;28;20473;-78
2022/07/19 05:38:29;;;;;;;7.57;3.13;;;24.00;58.00;;;;;;5026001;28;20475;-77
2022/07/19 05:40:57;;;;;;;6.10;2.60;;;25.10;56.60;;;;;;5026555;28;20482;-77
2022/07/19 05:43:26;;;;;;;6.93;2.33;;;26.20;54.80;;;;;;5023975;28;20444;-78
2022/07/19 05:45:54;;;;;;;8.70;3.47;;;27.50;53.10;;;;;;5022868;28;20478;-78
2022/07/19 05:48:22;;;;;;;8.10;2.40;;;28.50;51.70;;;;;;5024350;28;20484;-78
2022/07/19 05:50:50;;;;;;;5.90;2.13;;;29.40;50.60;;;;;;5025139;28;20470;-79
2022/07/19 05:53:18;;;;;;;5.23;2.20;;;30.20;49.70;;;;;;5023565;28;20457;-78
2022/07/19 05:55:47;;;;;;;6.73;2.83;;;30.90;48.70;;;;;;5023562;28;20531;-78
2022/07/19 05:58:17;;;;;;;6.53;2.60;;;31.60;47.90;;;;;;5021910;28;20550;-78
2022/07/19 06:03:28;;;;;;;7.37;3.13;;;32.80;46.30;;;;;;5019173;28;20474;-78
2022/07/19 06:05:56;;;;;;;6.97;2.43;;;33.40;45.60;;;;;;5024337;28;20506;-78
2022/07/19 06:08:24;;;;;;;10.57;2.53;;;34.00;44.80;;;;;;5024153;28;20463;-78
2022/07/19 06:10:53;;;;;;;6.50;2.63;;;34.50;44.10;;;;;;5013369;28;20463;-78
2022/07/19 06:13:22;;;;;;;5.17;2.40;;;34.90;43.40;;;;;;5021043;28;21147;-77
2022/07/19 06:15:51;;;;;;;9.80;3.60;;;35.30;42.60;;;;;;5024015;28;20488;-77
2022/07/19 06:18:20;;;;;;;7.70;2.43;;;35.70;41.80;;;;;;5024098;28;21061;-77
2022/07/19 06:20:48;;;;;;;8.07;3.30;;;35.70;41.30;;;;;;5017351;28;20939;-77
2022/07/19 06:23:16;;;;;;;7.50;2.77;;;35.30;41.40;;;;;;5021594;28;20507;-78
2022/07/19 06:25:47;;;;;;;7.33;2.53;;;34.60;41.50;;;;;;5022574;28;20483;-78
2022/07/19 06:28:15;;;;;;;8.13;2.80;;;33.80;42.00;;;;;;5024942;28;20467;-78
2022/07/19 06:30:43;;;;;;;7.17;2.83;;;33.00;42.30;;;;;;5027245;28;20468;-78
2022/07/19 06:33:12;;;;;;;8.10;2.90;;;32.10;42.60;;;;;;5023384;28;20867;-77
2022/07/19 06:35:41;;;;;;;7.53;2.57;;;31.10;43.30;;;;;;5023689;28;20495;-78
2022/07/19 06:38:09;;;;;;;6.90;3.07;;;30.10;44.00;;;;;;5024260;28;20459;-77
2022/07/19 06:40:37;;;;;;;6.03;2.80;;;29.20;44.90;;;;;;5022871;28;20788;-77
2022/07/19 06:43:05;;;;;;;6.50;2.63;;;28.40;45.60;;;;;;5024118;28;20483;-77
2022/07/19 06:45:33;;;;;;;7.40;3.30;;;27.70;46.50;;;;;;5021874;28;20571;-77
2022/07/19 06:48:01;;;;;;;11.40;2.57;;;27.10;47.10;;;;;;5025461;28;20474;-77
2022/07/19 06:50:30;;;;;;;8.27;2.63;;;26.70;47.70;;;;;;5025557;28;20497;-77
2022/07/19 06:53:09;;;;;;;6.73;3.20;;;26.30;48.40;;;;;;5022080;28;20461;-77
2022/07/19 06:55:37;;;;;;;14.60;3.03;;;26.00;48.90;;;;;;5027577;28;20486;-77
2022/07/19 06:58:05;;;;;;;8.87;2.70;;;25.80;49.20;;;;;;5023871;28;20450;-77
2022/07/19 07:00:33;;;;;;;12.47;3.47;;;25.60;49.80;;;;;;5011139;28;20550;-77
2022/07/19 07:03:01;;;;;;;7.80;2.60;;;25.40;50.10;;;;;;5018854;28;20495;-77
2022/07/19 07:05:31;;;;;;;8.40;3.57;;;25.30;50.60;;;;;;5021272;28;21167;-77
2022/07/19 07:07:59;;;;;;;5.67;2.87;;;25.20;50.70;;;;;;5023188;28;20463;-77
2022/07/19 07:10:27;;;;;;;11.03;2.77;;;25.10;51.00;;;;;;5024705;28;20786;-77
2022/07/19 07:12:55;;;;;;;6.67;2.63;;;25.00;51.20;;;;;;5024791;28;20460;-77
2022/07/19 07:15:23;;;;;;;7.77;2.90;;;25.00;51.60;;;;;;5021810;28;20471;-77
2022/07/19 07:17:51;;;;;;;9.17;2.87;;;24.90;51.80;;;;;;5022177;28;20467;-77
2022/07/19 07:20:19;;;;;;;7.37;2.77;;;24.90;52.10;;;;;;5028053;28;20469;-77
2022/07/19 07:22:48;;;;;;;9.93;2.83;;;24.90;52.20;;;;;;5020579;28;20484;-77
2022/07/19 07:25:16;;;;;;;10.20;3.30;;;24.90;52.40;;;;;;5020929;28;20583;-77
2022/07/19 07:27:44;;;;;;;6.03;3.00;;;24.90;52.60;;;;;;5023177;28;20448;-77
2022/07/19 07:30:12;;;;;;;7.23;3.03;;;24.90;52.70;;;;;;5023213;28;20463;-77
2022/07/19 07:32:40;;;;;;;10.27;3.00;;;25.00;52.80;;;;;;5023087;28;20452;-77
2022/07/19 07:35:08;;;;;;;11.23;3.40;;;25.00;52.90;;;;;;5022421;28;20466;-77
2022/07/19 07:37:36;;;;;;;9.47;3.60;;;25.00;52.90;;;;;;5023908;28;20960;-77
2022/07/19 07:40:07;;;;;;;9.93;3.40;;;25.10;53.00;;;;;;5018374;28;20466;-77
2022/07/19 07:42:35;;;;;;;6.10;2.57;;;25.10;53.00;;;;;;5019823;28;20498;-77
2022/07/19 07:45:03;;;;;;;8.00;2.77;;;25.20;53.00;;;;;;5022060;28;21052;-77
2022/07/19 07:47:31;;;;;;;6.30;2.77;;;25.20;53.00;;;;;;5019045;28;20838;-77
2022/07/19 07:49:59;;;;;;;17.17;3.53;;;25.30;53.10;;;;;;5021214;28;20485;-77
2022/07/19 07:52:27;;;;;;;7.20;2.93;;;25.40;53.30;;;;;;5021447;28;20475;-77
2022/07/19 07:54:55;;;;;;;7.50;3.00;;;25.40;53.30;;;;;;5019409;28;20465;-77
2022/07/19 07:57:44;;;;;;;9.60;3.40;;;25.50;53.30;;;;;;5022195;28;20464;-77
2022/07/19 08:00:14;;;;;;;12.93;3.43;;;25.50;53.40;;;;;;5021578;28;21289;-77
2022/07/19 08:02:44;;;;;;;9.80;3.23;;;25.60;53.30;;;;;;5021741;28;20478;-77
2022/07/19 08:05:13;;;;;;;8.80;3.17;;;25.70;53.20;;;;;;5021458;28;20460;-77
2022/07/19 08:07:41;;;;;;;7.67;3.13;;;25.80;53.10;;;;;;5021847;28;20552;-77
2022/07/19 08:10:11;;;;;;;7.00;3.00;;;25.90;53.00;;;;;;5020682;28;20458;-77
2022/07/19 08:12:39;;;;;;;10.47;3.10;;;26.00;52.90;;;;;;5023627;28;20456;-77
2022/07/19 08:15:09;;;;;;;6.07;2.83;;;26.10;52.80;;;;;;5027774;28;20478;-77
2022/07/19 08:17:37;;;;;;;10.27;3.70;;;26.20;52.70;;;;;;5008464;28;20837;-77
2022/07/19 08:20:06;;;;;;;12.67;3.10;;;26.30;52.50;;;;;;5023431;28;20473;-77
2022/07/19 08:22:34;;;;;;;12.07;3.20;;;26.40;52.40;;;;;;5022745;28;20495;-77
2022/07/19 08:25:02;;;;;;;7.17;2.80;;;26.50;52.30;;;;;;5023667;28;20930;-77
2022/07/19 08:27:30;;;;;;;11.93;2.80;;;26.50;52.10;;;;;;5021949;28;20982;-77
2022/07/19 08:29:58;;;;;;;8.00;3.67;;;26.60;52.10;;;;;;5022650;28;20454;-77
2022/07/19 08:32:36;;;;;;;11.37;3.40;;;26.60;52.00;;;;;;5022823;28;20895;-77
2022/07/19 08:35:05;;;;;;;12.53;3.33;;;26.70;51.80;;;;;;5022888;28;20454;-77
2022/07/19 08:37:34;;;;;;;13.90;3.37;;;26.80;51.60;;;;;;5021348;28;20470;-77
2022/07/19 08:40:02;;;;;;;7.27;3.13;;;26.80;51.50;;;;;;5014172;28;20452;-77
2022/07/19 08:42:31;;;;;;;5.60;2.80;;;26.90;51.50;;;;;;5025269;28;20568;-77
2022/07/19 08:45:06;;;;;;;8.27;3.30;;;26.90;51.60;;;;;;5026621;28;20461;-77
2022/07/19 08:47:36;;;;;;;11.60;3.40;;;27.00;51.40;;;;;;5007025;28;20883;-77
2022/07/19 08:50:06;;;;;;;6.90;2.50;;;27.00;51.20;;;;;;5006403;28;20457;-77
2022/07/19 08:52:36;;;;;;;11.50;3.23;;;27.10;51.20;;;;;;5004627;28;20455;-77
2022/07/19 08:55:04;;;;;;;9.30;3.10;;;27.10;51.10;;;;;;5003982;28;20473;-77
2022/07/19 09:00:17;;;;;;;7.87;3.20;;;27.20;51.10;;;;;;4992041;28;20478;-77
2022/07/19 09:02:55;;;;;;;22.17;3.63;;;27.30;51.00;;;;;;5028857;28;20494;-77
2022/07/19 09:05:24;;;;;;;7.93;3.33;;;27.40;50.80;;;;;;5031749;28;20453;-77
2022/07/19 09:08:07;;;;;;;9.73;2.67;;;27.40;50.80;;;;;;5025857;28;20469;-77
2022/07/19 09:10:37;;;;;;;8.33;3.07;;;27.50;50.60;;;;;;5025382;28;20467;-77
2022/07/19 09:13:08;;;;;;;11.20;3.50;;;27.60;50.50;;;;;;5020717;28;20457;-77
2022/07/19 09:15:47;;;;;;;8.03;3.10;;;27.70;50.40;;;;;;5027299;28;20489;-77
2022/07/19 09:18:20;;;;;;;7.80;3.10;;;27.80;50.40;;;;;;5028242;28;20449;-77
2022/07/19 09:20:50;;;;;;;6.53;3.00;;;27.90;50.10;;;;;;5028582;28;20500;-77
2022/07/19 09:23:18;;;;;;;6.73;2.37;;;28.00;49.90;;;;;;5023184;28;20482;-77
2022/07/19 09:25:49;;;;;;;7.17;2.70;;;28.10;49.50;;;;;;5024289;28;20474;-77
2022/07/19 09:28:18;;;;;;;6.53;2.63;;;28.10;49.10;;;;;;5026654;28;20512;-77
2022/07/19 09:30:48;;;;;;;12.90;3.30;;;28.20;48.80;;;;;;5024123;28;20475;-77
2022/07/19 09:33:19;;;;;;;9.27;2.90;;;28.20;48.30;;;;;;5026552;28;20902;-78
2022/07/19 09:35:49;;;;;;;5.50;2.80;;;28.40;47.90;;;;;;5028828;28;20488;-77
2022/07/19 09:38:25;;;;;;;6.53;2.67;;;28.60;47.80;;;;;;5031488;28;20468;-77
2022/07/19 09:41:08;;;;;;;4.97;2.20;;;28.70;47.50;;;;;;5028211;28;20464;-77
2022/07/19 09:43:53;;;;;;;5.67;2.57;;;28.80;47.30;;;;;;5030525;28;20498;-77
2022/07/19 09:46:34;;;;;;;6.80;2.67;;;29.00;47.10;;;;;;5031772;28;20481;-77
2022/07/19 09:49:06;;;;;;;5.90;2.77;;;29.10;46.50;;;;;;5023287;28;20513;-77
2022/07/19 09:51:36;;;;;;;7.93;2.60;;;29.20;46.20;;;;;;5019886;28;20463;-78
2022/07/19 09:54:06;;;;;;;11.30;3.20;;;29.30;46.00;;;;;;5032343;28;20564;-78
2022/07/19 09:56:37;;;;;;;5.80;2.80;;;29.40;45.70;;;;;;5029178;28;20498;-78
2022/07/19 09:59:06;;;;;;;6.53;3.23;;;29.50;45.60;;;;;;5026533;28;20982;-78
2022/07/19 10:01:35;;;;;;;4.97;2.40;;;29.70;45.30;;;;;;5015197;28;20946;-78
2022/07/19 10:04:07;;;;;;;7.60;2.50;;;29.70;45.20;;;;;;5010909;28;20851;-78
2022/07/19 10:06:36;;;;;;;6.60;2.80;;;29.70;45.00;;;;;;5019601;28;21023;-77
2022/07/19 10:09:07;;;;;;;6.47;2.33;;;29.90;44.60;;;;;;5023317;28;20455;-78
2022/07/19 10:11:36;;;;;;;7.20;2.70;;;29.90;44.50;;;;;;5026450;28;20918;-78
2022/07/19 10:14:04;;;;;;;4.63;2.20;;;29.90;44.50;;;;;;5019604;28;20458;-78
2022/07/19 10:16:44;;;;;;;7.17;2.70;;;30.00;44.30;;;;;;5018032;28;20532;-78
2022/07/19 10:19:18;;;;;;;7.80;2.80;;;30.10;44.10;;;;;;5023232;28;20459;-78
2022/07/19 10:21:48;;;;;;;5.40;2.43;;;30.10;44.20;;;;;;5019053;28;20942;-78
2022/07/19 10:24:47;;;;;;;8.50;2.53;;;30.10;44.20;;;;;;5017850;28;20573;-78
2022/07/19 10:27:16;;;;;;;7.80;2.63;;;30.20;44.00;;;;;;5022738;28;20486;-78
2022/07/19 10:29:44;;;;;;;5.43;2.60;;;30.30;44.10;;;;;;5022705;28;20528;-78
2022/07/19 10:32:14;;;;;;;8.53;2.57;;;30.50;43.90;;;;;;5025061;28;20467;-78
2022/07/19 10:34:46;;;;;;;6.10;2.60;;;30.60;43.70;;;;;;5025057;28;20482;-78
2022/07/19 10:37:14;;;;;;;6.63;2.87;;;30.60;43.50;;;;;;5025715;28;20484;-78
2022/07/19 10:39:42;;;;;;;9.37;3.00;;;30.60;43.60;;;;;;5024365;28;20482;-78
2022/07/19 10:42:17;;;;;;;9.80;3.03;;;30.70;43.60;;;;;;5023053;28;20461;-78
2022/07/19 10:45:16;;;;;;;6.30;2.80;;;30.80;43.40;;;;;;5022862;28;20567;-78
2022/07/19 10:48:16;;;;;;;7.63;3.40;;;30.80;43.20;;;;;;5004167;28;20483;-78
2022/07/19 10:51:04;;;;;;;6.27;2.87;;;30.90;43.40;;;;;;4991917;28;20475;-78
2022/07/19 10:53:57;;;;;;;6.70;3.30;;;31.00;43.40;;;;;;5003385;28;20473;-78
2022/07/19 10:56:34;;;;;;;5.30;3.17;;;31.10;43.40;;;;;;5006360;28;20493;-78
2022/07/19 10:59:09;;;;;;;7.40;3.13;;;31.20;43.40;;;;;;5006768;28;20452;-78
2022/07/19 11:01:38;;;;;;;6.17;2.80;;;31.20;43.30;;;;;;5020354;28;20483;-78
2022/07/19 11:04:25;;;;;;;7.43;3.00;;;31.30;43.30;;;;;;5025187;28;21229;-78
2022/07/19 11:14:55;;;;;;;6.23;2.30;;;31.20;43.00;;;;;;5014530;28;20432;-78
2022/07/19 11:17:54;;;;;;;6.50;2.70;;;31.20;43.00;;;;;;5021586;28;20552;-78
2022/07/19 11:20:24;;;;;;;10.07;2.70;;;31.20;42.90;;;;;;5008563;28;20434;-78
2022/07/19 11:23:18;;;;;;;5.10;2.30;;;31.30;42.70;;;;;;5024017;28;20459;-78
2022/07/19 11:29:15;;;;;;;8.57;2.90;;;31.40;42.50;;;;;;5022725;28;21059;-78
2022/07/19 11:31:48;;;;;;;5.33;2.10;;;31.40;42.60;;;;;;5019978;28;20552;-78
2022/07/19 11:35:03;;;;;;;7.13;2.80;;;31.50;42.50;;;;;;5022866;28;20465;-78
2022/07/19 11:38:17;;;;;;;6.77;2.70;;;31.60;42.20;;;;;;5020308;28;20558;-78
2022/07/19 11:40:45;;;;;;;9.57;3.23;;;31.60;42.10;;;;;;5023048;28;20547;-78
2022/07/19 11:43:13;;;;;;;8.57;2.83;;;31.60;42.10;;;;;;5022567;28;20466;-78
2022/07/19 11:45:46;;;;;;;10.60;3.57;;;31.70;41.90;;;;;;5023016;28;21020;-78
2022/07/19 11:48:26;;;;;;;6.93;2.73;;;31.80;41.80;;;;;;5021553;28;20542;-78
2022/07/19 11:51:02;;;;;;;15.23;3.30;;;31.90;41.40;;;;;;5024302;28;20482;-78
2022/07/19 11:53:30;;;;;;;6.03;2.40;;;32.00;41.40;;;;;;5025214;28;20462;-78
2022/07/19 11:55:58;;;;;;;6.93;2.57;;;32.10;41.30;;;;;;5021182;28;20837;-78
2022/07/19 11:58:27;;;;;;;8.27;2.63;;;32.10;41.10;;;;;;5021216;28;20459;-78
2022/07/19 12:01:04;;;;;;;8.67;2.90;;;32.20;41.00;;;;;;5021942;28;20849;-78
2022/07/19 12:03:34;;;;;;;7.80;2.57;;;32.20;40.80;;;;;;5008148;28;20463;-78
2022/07/19 12:06:04;;;;;;;6.27;2.70;;;32.30;40.70;;;;;;5023391;28;20491;-78
2022/07/19 12:08:39;;;;;;;7.40;2.90;;;32.40;40.60;;;;;;5025346;28;20467;-78
2022/07/19 12:11:17;;;;;;;6.60;2.77;;;32.40;40.60;;;;;;5023667;28;20462;-78
2022/07/19 12:13:46;;;;;;;5.40;2.53;;;32.40;40.50;;;;;;5024898;28;20455;-78
2022/07/19 12:16:17;;;;;;;6.50;2.53;;;32.40;40.50;;;;;;5030149;28;21036;-78
2022/07/19 12:18:49;;;;;;;11.00;2.57;;;32.40;40.50;;;;;;5031708;28;20841;-78
2022/07/19 12:21:26;;;;;;;6.27;3.10;;;32.50;40.40;;;;;;5016475;28;20529;-78
2022/07/19 12:24:11;;;;;;;7.80;3.30;;;32.50;40.20;;;;;;5023838;28;21207;-79
2022/07/19 12:26:41;;;;;;;7.40;2.47;;;32.60;39.90;;;;;;5026361;28;20490;-78
2022/07/19 12:29:23;;;;;;;8.27;3.40;;;32.60;40.00;;;;;;5024906;28;20456;-78
2022/07/19 12:31:53;;;;;;;10.70;3.57;;;32.70;39.90;;;;;;5027344;28;20559;-78
2022/07/19 12:34:23;;;;;;;6.00;2.77;;;32.70;39.90;;;;;;5025645;28;20484;-78
2022/07/19 12:36:51;;;;;;;7.00;2.80;;;32.80;39.90;;;;;;5027221;28;20475;-78
2022/07/19 12:39:26;;;;;;;9.23;3.33;;;32.80;39.80;;;;;;5025820;28;20472;-78
2022/07/19 12:42:05;;;;;;;7.17;2.70;;;32.80;39.70;;;;;;5024217;28;20457;-78
2022/07/19 12:44:34;;;;;;;5.77;3.10;;;32.80;39.50;;;;;;5026983;28;20479;-77
2022/07/19 12:47:03;;;;;;;6.00;2.90;;;32.90;39.50;;;;;;5025724;28;20495;-78
2022/07/19 12:53:58;;;;;;;9.23;2.87;;;33.10;39.10;;;;;;5024506;28;21287;-78
2022/07/19 12:56:26;;;;;;;15.93;3.40;;;33.20;39.40;;;;;;5022616;28;21048;-78
2022/07/19 13:01:40;;;;;;;6.10;2.70;;;33.20;39.30;;;;;;5028684;28;20534;-78
2022/07/19 13:04:10;;;;;;;10.63;3.23;;;33.20;39.10;;;;;;5028049;28;20461;-78
2022/07/19 13:06:38;;;;;;;7.50;3.53;;;33.20;38.80;;;;;;5022572;28;20479;-78
2022/07/19 13:09:09;;;;;;;8.33;3.03;;;33.20;38.70;;;;;;5025639;28;20460;-78
2022/07/19 13:11:37;;;;;;;11.50;3.90;;;33.20;38.70;;;;;;5026391;28;20462;-78
2022/07/19 13:14:06;;;;;;;13.03;2.80;;;33.20;38.60;;;;;;5024879;28;20458;-78
2022/07/19 13:16:34;;;;;;;7.07;3.10;;;33.20;38.60;;;;;;5012995;28;21005;-78
2022/07/19 13:19:03;;;;;;;8.70;3.83;;;33.20;38.60;;;;;;5024073;28;20431;-78
2022/07/19 13:21:31;;;;;;;6.00;3.00;;;33.10;38.50;;;;;;5024967;28;20460;-79
2022/07/19 13:23:59;;;;;;;6.80;3.30;;;33.10;38.60;;;;;;5023892;28;20462;-78
2022/07/19 13:26:37;;;;;;;12.30;3.80;;;33.10;38.50;;;;;;5026197;28;21178;-78